createdAt,value
2022-12-31T00:00:15.136Z,4.30
2022-12-31T00:02:42.121Z,4.30
2022-12-31T00:05:09.529Z,4.30
2022-12-31T00:10:04.042Z,4.30
2022-12-31T00:12:31.062Z,4.30
2022-12-31T00:14:57.971Z,4.30
2022-12-31T00:17:24.868Z,4.20
2022-12-31T00:19:51.730Z,4.20
2022-12-31T00:22:18.626Z,4.20
2022-12-31T00:24:45.568Z,4.10
2022-12-31T00:27:12.460Z,4.20
2022-12-31T00:29:39.427Z,4.20
2022-12-31T00:32:06.387Z,4.20
2022-12-31T00:34:33.345Z,4.20
2022-12-31T00:37:00.265Z,4.10
2022-12-31T00:39:27.172Z,4.10
2022-12-31T00:41:54.055Z,4.10
2022-12-31T00:44:21.027Z,4.10
2022-12-31T00:46:48.476Z,4.00
2022-12-31T00:49:15.510Z,4.10
2022-12-31T00:51:42.578Z,4.00
2022-12-31T00:54:10.246Z,3.90
2022-12-31T00:56:37.267Z,3.90
2022-12-31T00:59:04.386Z,3.90
2022-12-31T01:01:34.593Z,3.90
2022-12-31T01:04:09.713Z,3.80
2022-12-31T01:06:36.987Z,3.80
2022-12-31T01:09:04.673Z,3.80
2022-12-31T01:11:31.650Z,3.70
2022-12-31T01:14:02.806Z,3.70
2022-12-31T01:16:31.436Z,3.70
2022-12-31T01:19:00.169Z,3.70
2022-12-31T01:21:28.527Z,3.70
2022-12-31T01:23:55.498Z,3.60
2022-12-31T01:26:22.554Z,3.60
2022-12-31T01:28:49.597Z,3.60
2022-12-31T01:31:18.782Z,3.50
2022-12-31T01:33:46.551Z,3.50
2022-12-31T01:36:25.253Z,3.50
2022-12-31T01:38:54.365Z,5.20
2022-12-31T01:41:25.163Z,3.40
2022-12-31T01:43:56.904Z,3.40
2022-12-31T01:46:32.420Z,3.40
2022-12-31T01:49:19.584Z,3.40
2022-12-31T01:52:04.646Z,3.30
2022-12-31T01:54:37.405Z,3.30
2022-12-31T01:57:05.405Z,3.30
2022-12-31T01:59:36.011Z,3.30
2022-12-31T02:02:03.807Z,3.30
2022-12-31T02:04:30.897Z,3.30
2022-12-31T02:07:03.786Z,3.30
2022-12-31T02:09:32.002Z,3.30
2022-12-31T02:11:59.034Z,2.10
2022-12-31T02:14:55.813Z,3.20
2022-12-31T02:17:32.609Z,3.20
2022-12-31T02:20:32.880Z,3.20
2022-12-31T02:23:43.167Z,3.20
2022-12-31T02:26:35.133Z,3.10
2022-12-31T02:29:11.317Z,3.10
2022-12-31T02:31:52.134Z,3.10
2022-12-31T02:34:25.846Z,3.10
2022-12-31T02:36:55.049Z,3.10
2022-12-31T02:39:22.508Z,3.10
2022-12-31T02:41:50.624Z,3.20
2022-12-31T02:44:24.975Z,3.20
2022-12-31T02:47:09.963Z,3.10
2022-12-31T02:49:42.712Z,3.10
2022-12-31T02:52:23.380Z,3.10
2022-12-31T02:55:05.337Z,3.10
2022-12-31T02:57:40.305Z,3.10
2022-12-31T03:00:30.725Z,3.00
2022-12-31T03:03:00.505Z,3.10
2022-12-31T03:05:34.524Z,3.10
2022-12-31T03:08:01.410Z,3.10
2022-12-31T03:10:28.562Z,3.10
2022-12-31T03:12:55.461Z,3.10
2022-12-31T03:15:28.607Z,3.10
2022-12-31T03:18:06.304Z,3.10
2022-12-31T03:20:55.905Z,3.00
2022-12-31T03:23:25.417Z,3.00
2022-12-31T03:25:53.480Z,3.00
2022-12-31T03:28:23.366Z,3.00
2022-12-31T03:30:53.433Z,3.00
2022-12-31T03:33:21.667Z,3.00
2022-12-31T03:35:49.597Z,3.00
2022-12-31T03:38:20.342Z,3.00
2022-12-31T03:40:52.162Z,3.00
2022-12-31T03:43:20.390Z,3.00
2022-12-31T03:45:52.646Z,3.00
2022-12-31T03:48:23.260Z,3.00
2022-12-31T03:50:50.687Z,3.00
2022-12-31T03:53:17.980Z,2.90
2022-12-31T03:55:44.940Z,2.90
2022-12-31T03:58:12.046Z,2.90
2022-12-31T04:00:38.954Z,2.90
2022-12-31T04:03:08.464Z,2.90
2022-12-31T04:05:35.370Z,3.00
2022-12-31T04:08:03.118Z,3.00
2022-12-31T04:10:30.064Z,3.00
2022-12-31T04:12:56.940Z,3.00
2022-12-31T04:15:23.803Z,3.00
2022-12-31T04:17:50.704Z,3.00
2022-12-31T04:20:20.115Z,3.00
2022-12-31T04:22:47.015Z,3.00
2022-12-31T04:25:13.908Z,3.00
2022-12-31T04:27:43.702Z,3.00
2022-12-31T04:30:13.161Z,3.00
2022-12-31T04:32:40.904Z,2.90
2022-12-31T04:35:08.777Z,2.90
2022-12-31T04:37:37.765Z,2.90
2022-12-31T04:40:08.698Z,2.90
2022-12-31T04:42:36.190Z,2.90
2022-12-31T04:45:03.419Z,2.90
2022-12-31T04:47:30.343Z,2.90
2022-12-31T04:49:57.233Z,2.90
2022-12-31T04:52:24.153Z,3.00
2022-12-31T04:54:51.051Z,3.00
2022-12-31T04:57:17.980Z,3.00
2022-12-31T04:59:44.964Z,3.00
2022-12-31T05:02:11.974Z,3.00
2022-12-31T05:04:39.008Z,3.00
2022-12-31T05:07:05.886Z,3.00
2022-12-31T05:09:32.761Z,3.10
2022-12-31T05:11:59.650Z,3.10
2022-12-31T05:14:26.820Z,3.10
2022-12-31T05:16:54.010Z,3.10
2022-12-31T05:19:21.177Z,3.10
2022-12-31T05:22:08.022Z,3.20
2022-12-31T05:24:35.072Z,3.20
2022-12-31T05:27:02.346Z,3.20
2022-12-31T05:29:29.234Z,3.20
2022-12-31T05:31:56.094Z,3.30
2022-12-31T05:34:22.984Z,3.30
2022-12-31T05:36:49.910Z,3.40
2022-12-31T05:39:16.771Z,3.40
2022-12-31T05:41:43.649Z,3.40
2022-12-31T05:44:11.428Z,3.50
2022-12-31T05:46:38.386Z,3.50
2022-12-31T05:49:05.254Z,3.50
2022-12-31T05:51:32.336Z,3.50
2022-12-31T05:53:59.258Z,3.50
2022-12-31T05:56:26.161Z,3.50
2022-12-31T05:58:53.018Z,3.60
2022-12-31T06:01:20.098Z,3.60
2022-12-31T06:03:47.495Z,3.70
2022-12-31T06:06:14.492Z,3.80
2022-12-31T06:08:41.382Z,3.80
2022-12-31T06:11:08.414Z,3.80
2022-12-31T06:13:35.419Z,3.90
2022-12-31T06:16:09.547Z,4.00
2022-12-31T06:18:37.404Z,4.00
2022-12-31T06:21:04.624Z,4.10
2022-12-31T06:23:31.602Z,4.10
2022-12-31T06:26:05.082Z,4.10
2022-12-31T06:28:31.984Z,4.10
2022-12-31T06:31:04.402Z,4.20
2022-12-31T06:33:31.723Z,4.20
2022-12-31T06:36:00.260Z,4.20
2022-12-31T06:38:29.440Z,4.20
2022-12-31T06:40:56.638Z,4.20
2022-12-31T06:43:23.569Z,4.20
2022-12-31T06:45:50.477Z,4.20
2022-12-31T06:48:17.788Z,4.30
2022-12-31T06:50:44.672Z,4.30
2022-12-31T06:53:11.560Z,4.30
2022-12-31T06:55:38.832Z,4.30
2022-12-31T06:58:06.037Z,4.30
2022-12-31T07:00:33.270Z,4.30
2022-12-31T07:03:09.081Z,4.20
2022-12-31T07:05:39.103Z,4.20
2022-12-31T07:08:06.048Z,4.30
2022-12-31T07:10:57.475Z,4.30
2022-12-31T07:13:47.629Z,4.30
2022-12-31T07:16:23.891Z,4.30
2022-12-31T07:19:09.587Z,4.40
2022-12-31T07:21:39.710Z,4.40
2022-12-31T07:24:08.763Z,4.30
2022-12-31T07:27:03.056Z,4.30
2022-12-31T07:29:43.727Z,4.30
2022-12-31T07:32:29.461Z,4.20
2022-12-31T07:35:09.836Z,4.30
2022-12-31T07:37:39.800Z,4.20
2022-12-31T07:40:25.007Z,4.20
2022-12-31T07:43:18.298Z,4.20
2022-12-31T07:45:45.153Z,4.10
2022-12-31T07:48:30.386Z,4.10
2022-12-31T07:50:58.092Z,4.10
2022-12-31T07:53:26.083Z,4.00
2022-12-31T07:56:02.010Z,3.90
2022-12-31T07:58:52.024Z,3.90
2022-12-31T08:01:39.970Z,3.80
2022-12-31T08:04:25.844Z,3.80
2022-12-31T08:07:15.733Z,3.80
2022-12-31T08:10:18.302Z,3.70
2022-12-31T08:12:47.509Z,3.80
2022-12-31T08:15:16.742Z,3.70
2022-12-31T08:17:43.977Z,3.70
2022-12-31T08:20:17.705Z,3.70
2022-12-31T08:22:59.318Z,3.80
2022-12-31T08:25:59.968Z,3.80
2022-12-31T08:29:02.544Z,3.80
2022-12-31T08:31:48.509Z,3.80
2022-12-31T08:34:15.438Z,3.80
2022-12-31T08:36:49.363Z,3.90
2022-12-31T08:39:22.064Z,3.90
2022-12-31T08:41:53.592Z,3.90
2022-12-31T08:45:02.083Z,3.90
2022-12-31T08:47:47.447Z,3.90
2022-12-31T08:50:16.679Z,3.90
2022-12-31T08:52:44.463Z,3.90
2022-12-31T08:55:16.600Z,3.90
2022-12-31T08:58:08.759Z,4.00
2022-12-31T09:00:37.408Z,4.00
2022-12-31T09:03:23.121Z,4.00
2022-12-31T09:06:05.214Z,4.00
2022-12-31T09:09:02.755Z,4.10
2022-12-31T09:11:57.444Z,4.00
2022-12-31T09:14:47.592Z,4.10
2022-12-31T09:17:23.557Z,4.10
2022-12-31T09:19:50.656Z,4.10
2022-12-31T09:22:17.853Z,4.10
2022-12-31T09:24:45.079Z,4.10
2022-12-31T09:27:27.469Z,4.10
2022-12-31T09:30:01.756Z,4.10
2022-12-31T09:32:48.085Z,4.10
2022-12-31T09:35:49.556Z,4.10
2022-12-31T09:38:38.662Z,4.10
2022-12-31T09:41:20.479Z,4.10
2022-12-31T09:43:47.358Z,4.10
2022-12-31T09:46:40.563Z,4.10
2022-12-31T09:49:19.790Z,4.10
2022-12-31T09:52:13.934Z,4.00
2022-12-31T09:54:54.127Z,4.00
2022-12-31T09:57:50.373Z,4.00
2022-12-31T10:00:43.435Z,4.00
2022-12-31T10:03:48.412Z,4.10
2022-12-31T10:06:30.468Z,4.10
2022-12-31T10:09:22.019Z,4.10
2022-12-31T10:12:24.093Z,4.70
2022-12-31T10:15:00.773Z,4.20
2022-12-31T10:18:05.263Z,4.20
2022-12-31T10:20:59.172Z,4.20
2022-12-31T10:23:34.820Z,4.30
2022-12-31T10:26:14.329Z,4.30
2022-12-31T10:29:06.183Z,4.30
2022-12-31T10:31:38.928Z,4.20
2022-12-31T10:34:43.239Z,4.30
2022-12-31T10:37:36.522Z,4.30
2022-12-31T10:40:29.077Z,4.30
2022-12-31T10:43:01.434Z,4.30
2022-12-31T10:45:46.554Z,4.30
2022-12-31T10:48:50.422Z,4.30
2022-12-31T10:51:34.249Z,4.40
2022-12-31T10:54:19.868Z,4.40
2022-12-31T10:56:46.703Z,4.40
2022-12-31T10:59:44.360Z,4.40
2022-12-31T11:02:38.953Z,4.40
2022-12-31T11:05:43.103Z,4.50
2022-12-31T11:08:36.196Z,4.50
2022-12-31T11:11:12.897Z,4.50
2022-12-31T11:13:57.902Z,4.60
2022-12-31T11:16:38.708Z,4.60
2022-12-31T11:19:21.566Z,4.60
2022-12-31T11:22:15.741Z,4.70
2022-12-31T11:24:57.668Z,4.70
2022-12-31T11:28:03.435Z,4.70
2022-12-31T11:31:09.982Z,4.70
2022-12-31T11:34:03.982Z,4.70
2022-12-31T11:36:42.303Z,4.70
2022-12-31T11:39:42.612Z,4.70
2022-12-31T11:42:21.793Z,4.70
2022-12-31T11:45:13.184Z,4.80
2022-12-31T11:48:28.404Z,4.80
2022-12-31T11:50:50.675Z,4.80
2022-12-31T11:53:36.351Z,4.90
2022-12-31T11:56:24.766Z,4.90
2022-12-31T11:58:53.820Z,4.90
2022-12-31T12:01:26.853Z,4.90
2022-12-31T12:03:54.026Z,4.90
2022-12-31T12:06:30.418Z,4.90
2022-12-31T12:09:01.643Z,4.90
2022-12-31T12:11:33.141Z,5.00
2022-12-31T12:14:00.065Z,5.00
2022-12-31T12:16:28.677Z,5.00
2022-12-31T12:19:05.735Z,4.90
2022-12-31T12:21:33.130Z,5.00
2022-12-31T12:24:25.374Z,5.00
2022-12-31T12:26:52.290Z,5.00
2022-12-31T12:29:22.867Z,5.00
2022-12-31T12:32:21.846Z,5.00
2022-12-31T12:34:50.129Z,5.00
2022-12-31T12:37:24.559Z,5.10
2022-12-31T12:40:09.447Z,5.10
2022-12-31T12:42:36.392Z,5.10
2022-12-31T12:45:19.124Z,5.10
2022-12-31T12:47:57.686Z,5.10
2022-12-31T12:50:34.725Z,5.10
2022-12-31T12:53:38.448Z,5.10
2022-12-31T12:56:44.475Z,5.10
2022-12-31T12:59:59.091Z,5.20
2022-12-31T13:02:48.834Z,7.00
2022-12-31T13:05:38.427Z,5.20
2022-12-31T13:08:39.428Z,5.20
2022-12-31T13:11:18.342Z,5.30
2022-12-31T13:14:26.554Z,5.30
2022-12-31T13:16:59.937Z,5.30
2022-12-31T13:19:35.805Z,5.30
2022-12-31T13:22:26.292Z,5.30
2022-12-31T13:25:02.731Z,5.30
2022-12-31T13:27:37.559Z,5.30
2022-12-31T13:30:30.560Z,5.30
2022-12-31T13:33:23.919Z,5.30
2022-12-31T13:35:59.183Z,5.40
2022-12-31T13:38:47.132Z,5.40
2022-12-31T13:41:37.536Z,5.40
2022-12-31T13:44:26.269Z,5.40
2022-12-31T13:46:59.767Z,5.40
2022-12-31T13:49:39.810Z,5.40
2022-12-31T13:52:34.512Z,5.40
2022-12-31T13:55:32.168Z,5.50
2022-12-31T13:58:30.917Z,5.50
2022-12-31T14:01:33.627Z,5.50
2022-12-31T14:04:24.880Z,5.50
2022-12-31T14:07:04.964Z,5.50
2022-12-31T14:09:34.536Z,5.60
2022-12-31T14:12:04.384Z,5.60
2022-12-31T14:14:49.120Z,5.60
2022-12-31T14:17:19.938Z,5.60
2022-12-31T14:19:49.681Z,5.60
2022-12-31T14:22:23.397Z,5.60
2022-12-31T14:24:51.965Z,5.70
2022-12-31T14:27:41.661Z,5.70
2022-12-31T14:30:23.282Z,5.60
2022-12-31T14:33:13.633Z,5.70
2022-12-31T14:35:58.257Z,5.70
2022-12-31T14:39:03.205Z,5.70
2022-12-31T14:41:33.262Z,5.70
2022-12-31T14:44:16.198Z,5.80
2022-12-31T14:47:09.068Z,5.80
2022-12-31T14:50:11.251Z,5.80
2022-12-31T14:53:09.132Z,5.80
2022-12-31T14:55:43.577Z,5.80
2022-12-31T14:58:29.854Z,5.80
2022-12-31T15:01:04.522Z,5.90
2022-12-31T15:03:31.492Z,5.90
2022-12-31T15:06:24.195Z,6.00
2022-12-31T15:09:21.015Z,6.00
2022-12-31T15:12:14.299Z,6.00
2022-12-31T15:15:05.679Z,6.00
2022-12-31T15:17:47.819Z,7.70
2022-12-31T15:20:30.132Z,6.00
2022-12-31T15:22:57.443Z,6.00
2022-12-31T15:25:46.586Z,6.10
2022-12-31T15:28:39.620Z,6.10
2022-12-31T15:31:19.876Z,6.10
2022-12-31T15:33:57.946Z,6.10
2022-12-31T15:36:38.256Z,6.10
2022-12-31T15:39:45.416Z,6.10
2022-12-31T15:42:50.087Z,6.10
2022-12-31T15:45:24.681Z,6.10
2022-12-31T15:47:57.450Z,6.20
2022-12-31T15:50:25.974Z,6.20
2022-12-31T15:52:58.383Z,6.20
2022-12-31T15:55:38.656Z,6.20
2022-12-31T15:58:11.095Z,6.20
2022-12-31T16:00:50.043Z,6.20
2022-12-31T16:03:22.526Z,6.20
2022-12-31T16:05:50.077Z,6.30
2022-12-31T16:08:24.749Z,6.30
2022-12-31T16:10:53.876Z,6.30
2022-12-31T16:13:24.053Z,6.30
2022-12-31T16:16:02.371Z,6.40
2022-12-31T16:18:41.119Z,6.30
2022-12-31T16:21:29.633Z,6.40
2022-12-31T16:23:59.510Z,6.40
2022-12-31T16:26:36.799Z,6.70
2022-12-31T16:29:04.608Z,6.40
2022-12-31T16:31:31.877Z,6.40
2022-12-31T16:34:12.642Z,6.70
2022-12-31T16:36:39.782Z,6.70
2022-12-31T16:39:37.001Z,6.80
2022-12-31T16:42:20.098Z,6.80
2022-12-31T16:44:48.664Z,6.80
2022-12-31T16:47:24.744Z,6.70
2022-12-31T16:50:03.292Z,6.70
2022-12-31T16:52:38.490Z,6.70
2022-12-31T16:55:27.185Z,6.70
2022-12-31T16:58:02.091Z,6.70
2022-12-31T17:00:29.429Z,6.80
2022-12-31T17:03:03.643Z,6.80
2022-12-31T17:05:30.751Z,6.70
2022-12-31T17:07:57.751Z,6.80
2022-12-31T17:10:27.155Z,6.90
2022-12-31T17:13:28.021Z,6.90
2022-12-31T17:15:47.089Z,7.00
2022-12-31T17:18:25.959Z,7.20
2022-12-31T17:20:55.027Z,7.40
2022-12-31T17:23:34.289Z,7.30
2022-12-31T17:26:14.658Z,7.40
2022-12-31T17:28:53.487Z,7.30
2022-12-31T17:31:35.040Z,7.20
2022-12-31T17:34:13.859Z,7.30
2022-12-31T17:37:17.612Z,7.40
2022-12-31T17:39:53.619Z,7.40
2022-12-31T17:42:34.571Z,7.30
2022-12-31T17:45:08.418Z,7.30
2022-12-31T17:47:38.047Z,7.20
2022-12-31T17:50:23.183Z,7.40
2022-12-31T17:52:50.406Z,7.30
2022-12-31T17:55:18.405Z,7.40
2022-12-31T17:57:54.077Z,7.30
2022-12-31T18:00:26.939Z,7.30
2022-12-31T18:02:53.949Z,7.40
2022-12-31T18:05:23.575Z,7.40
2022-12-31T18:07:50.723Z,7.40
2022-12-31T18:10:19.856Z,7.40
2022-12-31T18:12:48.730Z,7.40
2022-12-31T18:15:22.889Z,7.40
2022-12-31T18:17:50.604Z,7.40
2022-12-31T18:20:18.507Z,7.40
2022-12-31T18:22:45.938Z,7.30
2022-12-31T18:25:23.817Z,7.50
2022-12-31T18:27:51.787Z,7.50
2022-12-31T18:30:18.868Z,7.50
2022-12-31T18:32:46.825Z,7.50
2022-12-31T18:35:48.612Z,7.50
2022-12-31T18:38:06.459Z,7.60
2022-12-31T18:40:34.125Z,7.50
2022-12-31T18:43:04.941Z,7.60
2022-12-31T18:45:32.310Z,7.50
2022-12-31T18:47:59.219Z,7.90
2022-12-31T18:50:26.099Z,7.60
2022-12-31T18:52:52.973Z,7.50
2022-12-31T18:55:24.689Z,7.70
2022-12-31T18:57:51.848Z,7.70
2022-12-31T19:00:18.959Z,7.60
2022-12-31T19:02:45.835Z,7.60
2022-12-31T19:05:25.664Z,7.60
2022-12-31T19:07:52.853Z,7.60
2022-12-31T19:10:20.437Z,7.70
2022-12-31T19:12:51.237Z,7.70
2022-12-31T19:15:20.891Z,7.60
2022-12-31T19:17:47.742Z,7.70
2022-12-31T19:20:14.704Z,7.70
2022-12-31T19:22:41.718Z,7.60
2022-12-31T19:25:17.046Z,7.60
2022-12-31T19:27:44.064Z,7.60
2022-12-31T19:30:34.520Z,7.70
2022-12-31T19:33:01.490Z,7.70
2022-12-31T19:35:28.627Z,7.60
2022-12-31T19:37:55.838Z,7.60
2022-12-31T19:40:28.751Z,7.60
2022-12-31T19:42:56.364Z,7.70
2022-12-31T19:45:23.286Z,7.70
2022-12-31T19:47:50.303Z,7.60
2022-12-31T19:50:25.888Z,7.70
2022-12-31T19:52:56.862Z,7.60
2022-12-31T19:55:26.355Z,7.60
2022-12-31T19:57:53.393Z,7.70
2022-12-31T20:00:21.353Z,7.60
2022-12-31T20:02:49.441Z,7.70
2022-12-31T20:05:19.387Z,7.70
2022-12-31T20:07:46.559Z,7.70
2022-12-31T20:10:13.705Z,7.70
2022-12-31T20:12:44.572Z,7.90
2022-12-31T20:15:11.883Z,7.90
2022-12-31T20:17:38.891Z,7.80
2022-12-31T20:20:06.949Z,7.60
2022-12-31T20:22:34.128Z,7.60
2022-12-31T20:25:00.984Z,7.70
2022-12-31T20:27:28.137Z,7.70
2022-12-31T20:29:55.185Z,7.80
2022-12-31T20:32:22.221Z,7.90
2022-12-31T20:34:49.089Z,7.90
2022-12-31T20:37:16.052Z,7.90
2022-12-31T20:39:44.012Z,7.90
2022-12-31T20:42:10.978Z,7.90
2022-12-31T20:44:38.063Z,8.00
2022-12-31T20:47:05.037Z,8.00
2022-12-31T20:50:09.003Z,8.10
2022-12-31T20:52:18.875Z,8.00
2022-12-31T20:54:45.976Z,8.00
2022-12-31T20:57:12.873Z,8.00
2022-12-31T20:59:39.772Z,8.10
2022-12-31T21:02:29.602Z,8.10
2022-12-31T21:04:54.268Z,8.30
2022-12-31T21:07:21.350Z,8.20
2022-12-31T21:09:48.305Z,8.30
2022-12-31T21:12:33.728Z,8.20
2022-12-31T21:15:02.506Z,8.30
2022-12-31T21:17:29.394Z,8.30
2022-12-31T21:19:56.270Z,8.40
2022-12-31T21:22:24.263Z,8.40
2022-12-31T21:24:51.232Z,8.30
2022-12-31T21:27:18.159Z,8.30
2022-12-31T21:30:16.512Z,8.40
2022-12-31T21:32:31.903Z,8.40
2022-12-31T21:35:31.486Z,8.40
2022-12-31T21:37:57.907Z,8.50
2022-12-31T21:40:27.335Z,8.40
2022-12-31T21:42:54.355Z,8.60
2022-12-31T21:45:21.277Z,8.50
2022-12-31T21:48:06.857Z,8.50
2022-12-31T21:50:34.473Z,8.70
2022-12-31T21:53:04.702Z,8.60
2022-12-31T21:55:50.325Z,8.60
2022-12-31T21:58:26.409Z,8.50
2022-12-31T22:01:14.258Z,8.60
2022-12-31T22:03:41.473Z,8.60
2022-12-31T22:06:16.301Z,8.70
2022-12-31T22:08:54.844Z,8.60
2022-12-31T22:11:27.274Z,8.70
2022-12-31T22:13:54.738Z,8.70
2022-12-31T22:16:22.668Z,8.60
2022-12-31T22:18:56.080Z,8.60
2022-12-31T22:21:24.696Z,8.70
2022-12-31T22:23:54.676Z,8.70
2022-12-31T22:26:28.375Z,8.70
2022-12-31T22:28:59.426Z,8.60
2022-12-31T22:31:30.132Z,8.70
2022-12-31T22:33:58.566Z,8.70
2022-12-31T22:36:25.892Z,8.60
2022-12-31T22:38:57.422Z,8.70
2022-12-31T22:41:26.468Z,8.60
2022-12-31T22:44:02.577Z,8.70
2022-12-31T22:46:30.428Z,8.70
2022-12-31T22:48:59.132Z,8.70
2022-12-31T22:51:54.565Z,8.80
2022-12-31T22:54:14.778Z,8.60
2022-12-31T22:56:41.878Z,8.70
2022-12-31T22:59:09.384Z,8.60
2022-12-31T23:01:37.191Z,8.90
2022-12-31T23:04:05.125Z,8.80
2022-12-31T23:06:32.466Z,8.70
2022-12-31T23:09:17.849Z,8.70
2022-12-31T23:11:44.781Z,8.90
2022-12-31T23:14:36.173Z,8.80
2022-12-31T23:17:29.979Z,8.90
2022-12-31T23:20:21.401Z,8.90
2022-12-31T23:23:07.018Z,8.90
2022-12-31T23:25:36.126Z,8.80
2022-12-31T23:28:03.589Z,8.90
2022-12-31T23:30:40.597Z,10.30
2022-12-31T23:33:10.823Z,9.00
2022-12-31T23:35:37.752Z,8.90
2022-12-31T23:38:04.803Z,8.90
2022-12-31T23:40:34.500Z,9.00
2022-12-31T23:43:06.416Z,9.00
2022-12-31T23:45:34.624Z,8.80
2022-12-31T23:48:01.985Z,8.90
2022-12-31T23:50:28.961Z,9.00
2022-12-31T23:52:55.846Z,9.00
2022-12-31T23:55:22.759Z,9.00
2022-12-31T23:57:49.674Z,8.90
